sensor_id;sensor_type;location;lat;lon;timestamp;temperature;humidity
51908;DHT22;39320;53.214;6.556;2023-04-24T00:00:16;12.50;99.90
51908;DHT22;39320;53.214;6.556;2023-04-24T00:02:43;12.50;99.90
51908;DHT22;39320;53.214;6.556;2023-04-24T00:05:14;12.50;99.90
51908;DHT22;39320;53.214;6.556;2023-04-24T00:07:41;12.50;99.90
51908;DHT22;39320;53.214;6.556;2023-04-24T00:10:07;12.50;99.90
51908;DHT22;39320;53.214;6.556;2023-04-24T00:12:33;12.50;99.90
51908;DHT22;39320;53.214;6.556;2023-04-24T00:14:59;12.50;99.90
51908;DHT22;39320;53.214;6.556;2023-04-24T00:17:26;12.50;99.90
51908;DHT22;39320;53.214;6.556;2023-04-24T00:19:51;12.50;99.90
51908;DHT22;39320;53.214;6.556;2023-04-24T00:22:24;12.50;99.90
51908;DHT22;39320;53.214;6.556;2023-04-24T00:24:50;12.50;99.90
51908;DHT22;39320;53.214;6.556;2023-04-24T00:27:15;12.50;99.90
51908;DHT22;39320;53.214;6.556;2023-04-24T00:29:41;12.50;99.90
51908;DHT22;39320;53.214;6.556;2023-04-24T00:32:07;12.60;99.90
51908;DHT22;39320;53.214;6.556;2023-04-24T00:34:32;12.60;99.90
51908;DHT22;39320;53.214;6.556;2023-04-24T00:36:58;12.50;99.90
51908;DHT22;39320;53.214;6.556;2023-04-24T00:39:24;12.50;99.90
51908;DHT22;39320;53.214;6.556;2023-04-24T00:41:50;12.50;99.90
51908;DHT22;39320;53.214;6.556;2023-04-24T00:44:16;12.40;99.90
51908;DHT22;39320;53.214;6.556;2023-04-24T00:46:42;12.30;99.90
51908;DHT22;39320;53.214;6.556;2023-04-24T00:49:08;12.30;99.90
51908;DHT22;39320;53.214;6.556;2023-04-24T00:51:33;12.30;99.90
51908;DHT22;39320;53.214;6.556;2023-04-24T00:54:00;12.20;99.90
51908;DHT22;39320;53.214;6.556;2023-04-24T00:56:26;12.20;99.90
51908;DHT22;39320;53.214;6.556;2023-04-24T00:58:52;12.20;99.90
51908;DHT22;39320;53.214;6.556;2023-04-24T01:01:20;12.20;99.90
51908;DHT22;39320;53.214;6.556;2023-04-24T01:03:47;12.20;99.90
51908;DHT22;39320;53.214;6.556;2023-04-24T01:06:13;12.20;99.90
51908;DHT22;39320;53.214;6.556;2023-04-24T01:08:40;12.10;99.90
51908;DHT22;39320;53.214;6.556;2023-04-24T01:11:07;12.10;99.90
51908;DHT22;39320;53.214;6.556;2023-04-24T01:13:33;12.10;99.90
51908;DHT22;39320;53.214;6.556;2023-04-24T01:15:59;12.10;99.90
51908;DHT22;39320;53.214;6.556;2023-04-24T01:18:26;12.10;99.90
51908;DHT22;39320;53.214;6.556;2023-04-24T01:21:00;12.10;99.90
51908;DHT22;39320;53.214;6.556;2023-04-24T01:23:27;12.10;99.90
51908;DHT22;39320;53.214;6.556;2023-04-24T01:25:53;12.10;99.90
51908;DHT22;39320;53.214;6.556;2023-04-24T01:28:19;12.10;99.90
51908;DHT22;39320;53.214;6.556;2023-04-24T01:30:45;12.00;99.90
51908;DHT22;39320;53.214;6.556;2023-04-24T01:33:11;12.10;99.90
51908;DHT22;39320;53.214;6.556;2023-04-24T01:35:40;12.00;99.90
51908;DHT22;39320;53.214;6.556;2023-04-24T01:38:06;12.00;99.90
51908;DHT22;39320;53.214;6.556;2023-04-24T01:40:32;12.00;99.90
51908;DHT22;39320;53.214;6.556;2023-04-24T01:42:58;12.00;99.90
51908;DHT22;39320;53.214;6.556;2023-04-24T01:45:24;11.90;99.90
51908;DHT22;39320;53.214;6.556;2023-04-24T01:47:50;12.00;99.90
51908;DHT22;39320;53.214;6.556;2023-04-24T01:50:16;11.90;99.90
51908;DHT22;39320;53.214;6.556;2023-04-24T01:52:42;11.90;99.90
51908;DHT22;39320;53.214;6.556;2023-04-24T01:55:08;11.90;99.90
51908;DHT22;39320;53.214;6.556;2023-04-24T01:57:37;11.80;99.90
51908;DHT22;39320;53.214;6.556;2023-04-24T02:00:04;11.80;99.90
51908;DHT22;39320;53.214;6.556;2023-04-24T02:02:31;11.80;99.90
51908;DHT22;39320;53.214;6.556;2023-04-24T02:04:57;11.80;99.90
51908;DHT22;39320;53.214;6.556;2023-04-24T02:07:23;11.80;99.90
51908;DHT22;39320;53.214;6.556;2023-04-24T02:09:49;11.80;99.90
51908;DHT22;39320;53.214;6.556;2023-04-24T02:12:15;11.80;99.90
51908;DHT22;39320;53.214;6.556;2023-04-24T02:14:43;11.80;99.90
51908;DHT22;39320;53.214;6.556;2023-04-24T02:17:09;11.80;99.90
51908;DHT22;39320;53.214;6.556;2023-04-24T02:19:35;11.70;99.90
51908;DHT22;39320;53.214;6.556;2023-04-24T02:22:00;11.80;99.90
51908;DHT22;39320;53.214;6.556;2023-04-24T02:24:26;11.80;99.90
51908;DHT22;39320;53.214;6.556;2023-04-24T02:26:52;11.70;99.90
51908;DHT22;39320;53.214;6.556;2023-04-24T02:29:18;11.70;99.90
51908;DHT22;39320;53.214;6.556;2023-04-24T02:31:43;11.70;99.90
51908;DHT22;39320;53.214;6.556;2023-04-24T02:34:09;11.70;99.90
51908;DHT22;39320;53.214;6.556;2023-04-24T02:36:35;11.70;99.90
51908;DHT22;39320;53.214;6.556;2023-04-24T02:39:01;11.70;99.90
51908;DHT22;39320;53.214;6.556;2023-04-24T02:41:27;11.70;99.90
51908;DHT22;39320;53.214;6.556;2023-04-24T02:44:01;11.60;99.90
51908;DHT22;39320;53.214;6.556;2023-04-24T02:46:26;11.60;99.90
51908;DHT22;39320;53.214;6.556;2023-04-24T02:48:52;11.60;99.90
51908;DHT22;39320;53.214;6.556;2023-04-24T02:51:18;11.60;99.90
51908;DHT22;39320;53.214;6.556;2023-04-24T02:53:43;11.70;99.90
51908;DHT22;39320;53.214;6.556;2023-04-24T02:56:09;11.60;99.90
51908;DHT22;39320;53.214;6.556;2023-04-24T02:58:37;11.60;99.90
51908;DHT22;39320;53.214;6.556;2023-04-24T03:01:03;11.60;99.90
51908;DHT22;39320;53.214;6.556;2023-04-24T03:03:29;11.60;99.90
51908;DHT22;39320;53.214;6.556;2023-04-24T03:05:55;11.60;99.90
51908;DHT22;39320;53.214;6.556;2023-04-24T03:08:22;11.60;99.90
51908;DHT22;39320;53.214;6.556;2023-04-24T03:10:48;11.60;99.90
51908;DHT22;39320;53.214;6.556;2023-04-24T03:13:15;11.70;99.90
51908;DHT22;39320;53.214;6.556;2023-04-24T03:15:41;11.70;99.90
51908;DHT22;39320;53.214;6.556;2023-04-24T03:18:07;11.70;99.90
51908;DHT22;39320;53.214;6.556;2023-04-24T03:20:33;11.70;99.90
51908;DHT22;39320;53.214;6.556;2023-04-24T03:22:58;11.70;99.90
51908;DHT22;39320;53.214;6.556;2023-04-24T03:25:24;11.70;99.90
51908;DHT22;39320;53.214;6.556;2023-04-24T03:27:51;11.70;99.90
51908;DHT22;39320;53.214;6.556;2023-04-24T03:30:16;11.70;99.90
51908;DHT22;39320;53.214;6.556;2023-04-24T03:32:42;11.70;99.90
51908;DHT22;39320;53.214;6.556;2023-04-24T03:35:08;11.70;99.90
51908;DHT22;39320;53.214;6.556;2023-04-24T03:37:34;11.80;99.90
51908;DHT22;39320;53.214;6.556;2023-04-24T03:40:00;11.80;99.90
51908;DHT22;39320;53.214;6.556;2023-04-24T03:42:26;11.80;99.90
51908;DHT22;39320;53.214;6.556;2023-04-24T03:44:52;11.70;99.90
51908;DHT22;39320;53.214;6.556;2023-04-24T03:47:18;11.70;99.90
51908;DHT22;39320;53.214;6.556;2023-04-24T03:49:44;11.70;99.90
51908;DHT22;39320;53.214;6.556;2023-04-24T03:52:09;11.70;99.90
51908;DHT22;39320;53.214;6.556;2023-04-24T03:54:35;11.70;99.90
51908;DHT22;39320;53.214;6.556;2023-04-24T03:57:01;11.70;99.90
51908;DHT22;39320;53.214;6.556;2023-04-24T03:59:27;11.70;99.90
51908;DHT22;39320;53.214;6.556;2023-04-24T04:01:53;11.60;99.90
51908;DHT22;39320;53.214;6.556;2023-04-24T04:04:18;11.70;99.90
51908;DHT22;39320;53.214;6.556;2023-04-24T04:06:44;11.60;99.90
51908;DHT22;39320;53.214;6.556;2023-04-24T04:09:11;11.60;99.90
51908;DHT22;39320;53.214;6.556;2023-04-24T04:11:37;11.60;99.90
51908;DHT22;39320;53.214;6.556;2023-04-24T04:14:03;11.60;99.90
51908;DHT22;39320;53.214;6.556;2023-04-24T04:16:29;11.60;99.90
51908;DHT22;39320;53.214;6.556;2023-04-24T04:18:55;11.60;99.90
51908;DHT22;39320;53.214;6.556;2023-04-24T04:21:21;11.60;99.90
51908;DHT22;39320;53.214;6.556;2023-04-24T04:23:47;11.60;99.90
51908;DHT22;39320;53.214;6.556;2023-04-24T04:26:13;11.60;99.90
51908;DHT22;39320;53.214;6.556;2023-04-24T04:28:39;11.60;99.90
51908;DHT22;39320;53.214;6.556;2023-04-24T04:31:05;11.60;99.90
51908;DHT22;39320;53.214;6.556;2023-04-24T04:33:33;11.60;99.90
51908;DHT22;39320;53.214;6.556;2023-04-24T04:35:59;11.60;99.90
51908;DHT22;39320;53.214;6.556;2023-04-24T04:38:25;11.60;99.90
51908;DHT22;39320;53.214;6.556;2023-04-24T04:40:55;11.60;99.90
51908;DHT22;39320;53.214;6.556;2023-04-24T04:43:24;11.60;99.90
51908;DHT22;39320;53.214;6.556;2023-04-24T04:45:51;11.60;99.90
51908;DHT22;39320;53.214;6.556;2023-04-24T04:48:17;11.60;99.90
51908;DHT22;39320;53.214;6.556;2023-04-24T04:50:44;11.60;99.90
51908;DHT22;39320;53.214;6.556;2023-04-24T04:53:10;11.60;99.90
51908;DHT22;39320;53.214;6.556;2023-04-24T04:55:36;11.50;99.90
51908;DHT22;39320;53.214;6.556;2023-04-24T04:58:02;11.50;99.90
51908;DHT22;39320;53.214;6.556;2023-04-24T05:00:28;11.50;99.90
51908;DHT22;39320;53.214;6.556;2023-04-24T05:02:59;11.50;99.90
51908;DHT22;39320;53.214;6.556;2023-04-24T05:05:25;11.60;99.90
51908;DHT22;39320;53.214;6.556;2023-04-24T05:13:21;11.50;99.90
51908;DHT22;39320;53.214;6.556;2023-04-24T05:15:47;11.50;99.90
51908;DHT22;39320;53.214;6.556;2023-04-24T05:21:37;11.70;99.90
51908;DHT22;39320;53.214;6.556;2023-04-24T05:24:02;11.70;99.90
51908;DHT22;39320;53.214;6.556;2023-04-24T05:26:28;11.80;99.90
51908;DHT22;39320;53.214;6.556;2023-04-24T05:28:54;11.70;99.90
51908;DHT22;39320;53.214;6.556;2023-04-24T05:31:20;11.70;99.90
51908;DHT22;39320;53.214;6.556;2023-04-24T05:33:46;11.70;99.90
51908;DHT22;39320;53.214;6.556;2023-04-24T05:36:12;11.70;99.90
51908;DHT22;39320;53.214;6.556;2023-04-24T05:38:38;11.70;99.90
51908;DHT22;39320;53.214;6.556;2023-04-24T05:41:04;11.70;99.90
51908;DHT22;39320;53.214;6.556;2023-04-24T05:43:30;11.60;99.90
51908;DHT22;39320;53.214;6.556;2023-04-24T05:45:55;11.70;99.90
51908;DHT22;39320;53.214;6.556;2023-04-24T05:48:21;11.60;99.90
51908;DHT22;39320;53.214;6.556;2023-04-24T05:50:50;11.60;99.90
51908;DHT22;39320;53.214;6.556;2023-04-24T05:53:16;11.60;99.90
51908;DHT22;39320;53.214;6.556;2023-04-24T05:55:42;11.70;99.90
51908;DHT22;39320;53.214;6.556;2023-04-24T05:58:07;11.70;99.90
51908;DHT22;39320;53.214;6.556;2023-04-24T06:00:34;11.70;99.90
51908;DHT22;39320;53.214;6.556;2023-04-24T06:03:00;11.60;99.90
51908;DHT22;39320;53.214;6.556;2023-04-24T06:05:25;11.60;99.90
51908;DHT22;39320;53.214;6.556;2023-04-24T06:07:52;11.50;99.90
51908;DHT22;39320;53.214;6.556;2023-04-24T06:10:18;11.50;99.90
51908;DHT22;39320;53.214;6.556;2023-04-24T06:12:44;11.60;99.90
51908;DHT22;39320;53.214;6.556;2023-04-24T06:15:10;11.60;99.90
51908;DHT22;39320;53.214;6.556;2023-04-24T06:17:36;11.60;99.90
51908;DHT22;39320;53.214;6.556;2023-04-24T06:20:02;11.60;99.90
51908;DHT22;39320;53.214;6.556;2023-04-24T06:22:30;11.60;99.90
51908;DHT22;39320;53.214;6.556;2023-04-24T06:24:56;11.60;99.90
51908;DHT22;39320;53.214;6.556;2023-04-24T06:27:22;11.60;99.90
51908;DHT22;39320;53.214;6.556;2023-04-24T06:29:47;11.60;99.90
51908;DHT22;39320;53.214;6.556;2023-04-24T06:32:23;11.50;99.90
51908;DHT22;39320;53.214;6.556;2023-04-24T06:34:50;11.50;99.90
51908;DHT22;39320;53.214;6.556;2023-04-24T06:37:16;11.50;99.90
51908;DHT22;39320;53.214;6.556;2023-04-24T06:39:42;11.50;99.90
51908;DHT22;39320;53.214;6.556;2023-04-24T06:42:08;11.50;99.90
51908;DHT22;39320;53.214;6.556;2023-04-24T06:44:35;11.50;99.90
51908;DHT22;39320;53.214;6.556;2023-04-24T06:47:09;11.50;99.90
51908;DHT22;39320;53.214;6.556;2023-04-24T06:49:39;11.50;99.90
51908;DHT22;39320;53.214;6.556;2023-04-24T06:52:05;11.50;99.90
51908;DHT22;39320;53.214;6.556;2023-04-24T06:54:32;11.40;99.90
51908;DHT22;39320;53.214;6.556;2023-04-24T06:56:58;11.40;99.90
51908;DHT22;39320;53.214;6.556;2023-04-24T06:59:26;11.40;99.90
51908;DHT22;39320;53.214;6.556;2023-04-24T07:01:52;11.50;99.90
51908;DHT22;39320;53.214;6.556;2023-04-24T07:04:18;11.40;99.90
51908;DHT22;39320;53.214;6.556;2023-04-24T07:06:45;11.40;99.90
51908;DHT22;39320;53.214;6.556;2023-04-24T07:09:11;11.40;99.90
51908;DHT22;39320;53.214;6.556;2023-04-24T07:11:39;11.40;99.90
51908;DHT22;39320;53.214;6.556;2023-04-24T07:14:06;11.50;99.90
51908;DHT22;39320;53.214;6.556;2023-04-24T07:16:32;11.50;99.90
51908;DHT22;39320;53.214;6.556;2023-04-24T07:18:58;11.50;99.90
51908;DHT22;39320;53.214;6.556;2023-04-24T07:21:24;11.50;99.90
51908;DHT22;39320;53.214;6.556;2023-04-24T07:23:51;11.40;99.90
51908;DHT22;39320;53.214;6.556;2023-04-24T07:26:16;11.40;99.90
51908;DHT22;39320;53.214;6.556;2023-04-24T07:28:42;11.40;99.90
51908;DHT22;39320;53.214;6.556;2023-04-24T07:31:08;11.40;99.90
51908;DHT22;39320;53.214;6.556;2023-04-24T07:33:34;11.40;99.90
51908;DHT22;39320;53.214;6.556;2023-04-24T07:36:01;11.30;99.90
51908;DHT22;39320;53.214;6.556;2023-04-24T07:38:29;11.30;99.90
51908;DHT22;39320;53.214;6.556;2023-04-24T07:40:57;11.20;99.90
51908;DHT22;39320;53.214;6.556;2023-04-24T07:43:23;11.20;99.90
51908;DHT22;39320;53.214;6.556;2023-04-24T07:45:50;11.20;99.90
51908;DHT22;39320;53.214;6.556;2023-04-24T07:48:16;11.20;99.90
51908;DHT22;39320;53.214;6.556;2023-04-24T07:50:44;11.20;99.90
51908;DHT22;39320;53.214;6.556;2023-04-24T07:53:10;11.20;99.90
51908;DHT22;39320;53.214;6.556;2023-04-24T07:55:36;11.40;99.90
51908;DHT22;39320;53.214;6.556;2023-04-24T07:58:01;11.20;99.90
51908;DHT22;39320;53.214;6.556;2023-04-24T08:00:27;11.20;99.90
51908;DHT22;39320;53.214;6.556;2023-04-24T08:02:53;11.20;99.90
51908;DHT22;39320;53.214;6.556;2023-04-24T08:05:19;11.10;99.90
51908;DHT22;39320;53.214;6.556;2023-04-24T08:07:49;11.10;99.90
51908;DHT22;39320;53.214;6.556;2023-04-24T08:10:15;11.20;99.90
51908;DHT22;39320;53.214;6.556;2023-04-24T08:12:41;11.10;99.90
51908;DHT22;39320;53.214;6.556;2023-04-24T08:15:08;11.10;99.90
51908;DHT22;39320;53.214;6.556;2023-04-24T08:17:36;11.00;99.90
51908;DHT22;39320;53.214;6.556;2023-04-24T08:20:04;11.00;99.90
51908;DHT22;39320;53.214;6.556;2023-04-24T08:22:33;10.90;99.90
51908;DHT22;39320;53.214;6.556;2023-04-24T08:25:00;11.00;99.90
51908;DHT22;39320;53.214;6.556;2023-04-24T08:27:26;11.00;99.90
51908;DHT22;39320;53.214;6.556;2023-04-24T08:29:55;11.00;99.90
51908;DHT22;39320;53.214;6.556;2023-04-24T08:32:21;11.00;99.90
51908;DHT22;39320;53.214;6.556;2023-04-24T08:34:46;10.90;99.90
51908;DHT22;39320;53.214;6.556;2023-04-24T08:37:13;10.80;99.90
51908;DHT22;39320;53.214;6.556;2023-04-24T08:39:38;10.80;99.90
51908;DHT22;39320;53.214;6.556;2023-04-24T08:42:08;10.80;99.90
51908;DHT22;39320;53.214;6.556;2023-04-24T08:44:35;10.70;99.90
51908;DHT22;39320;53.214;6.556;2023-04-24T08:47:02;10.70;99.90
51908;DHT22;39320;53.214;6.556;2023-04-24T08:49:28;10.60;99.90
51908;DHT22;39320;53.214;6.556;2023-04-24T08:51:58;10.60;99.90
51908;DHT22;39320;53.214;6.556;2023-04-24T08:54:26;10.50;99.90
51908;DHT22;39320;53.214;6.556;2023-04-24T08:56:54;10.40;99.90
51908;DHT22;39320;53.214;6.556;2023-04-24T08:59:23;10.40;99.90
51908;DHT22;39320;53.214;6.556;2023-04-24T09:01:51;10.40;99.90
51908;DHT22;39320;53.214;6.556;2023-04-24T09:04:17;10.30;99.90
51908;DHT22;39320;53.214;6.556;2023-04-24T09:06:48;10.30;99.90
51908;DHT22;39320;53.214;6.556;2023-04-24T09:09:16;10.30;99.90
51908;DHT22;39320;53.214;6.556;2023-04-24T09:11:43;10.30;99.90
51908;DHT22;39320;53.214;6.556;2023-04-24T09:14:09;10.30;99.90
51908;DHT22;39320;53.214;6.556;2023-04-24T09:16:36;10.30;99.90
51908;DHT22;39320;53.214;6.556;2023-04-24T09:19:02;10.40;99.90
51908;DHT22;39320;53.214;6.556;2023-04-24T09:21:33;10.40;99.90
51908;DHT22;39320;53.214;6.556;2023-04-24T09:24:05;10.40;99.90
51908;DHT22;39320;53.214;6.556;2023-04-24T09:26:39;10.50;99.90
51908;DHT22;39320;53.214;6.556;2023-04-24T09:29:05;10.40;99.90
51908;DHT22;39320;53.214;6.556;2023-04-24T09:31:31;10.50;99.90
51908;DHT22;39320;53.214;6.556;2023-04-24T09:36:40;10.50;99.90
51908;DHT22;39320;53.214;6.556;2023-04-24T09:39:09;10.50;99.90
51908;DHT22;39320;53.214;6.556;2023-04-24T09:44:15;10.50;99.90
51908;DHT22;39320;53.214;6.556;2023-04-24T09:46:43;10.50;99.90
51908;DHT22;39320;53.214;6.556;2023-04-24T09:49:12;10.50;99.90
51908;DHT22;39320;53.214;6.556;2023-04-24T09:51:38;10.50;99.90
51908;DHT22;39320;53.214;6.556;2023-04-24T09:54:29;10.50;99.90
51908;DHT22;39320;53.214;6.556;2023-04-24T09:56:55;10.40;99.90
51908;DHT22;39320;53.214;6.556;2023-04-24T09:59:22;10.40;99.90
51908;DHT22;39320;53.214;6.556;2023-04-24T10:01:47;10.40;99.90
51908;DHT22;39320;53.214;6.556;2023-04-24T10:04:27;10.40;99.90
51908;DHT22;39320;53.214;6.556;2023-04-24T10:06:56;10.50;99.90
51908;DHT22;39320;53.214;6.556;2023-04-24T10:09:23;10.50;99.90
51908;DHT22;39320;53.214;6.556;2023-04-24T10:11:50;10.60;99.90
51908;DHT22;39320;53.214;6.556;2023-04-24T10:14:22;10.60;99.90
51908;DHT22;39320;53.214;6.556;2023-04-24T10:16:49;10.70;99.90
51908;DHT22;39320;53.214;6.556;2023-04-24T10:19:16;10.60;99.90
51908;DHT22;39320;53.214;6.556;2023-04-24T10:21:44;10.70;99.90
51908;DHT22;39320;53.214;6.556;2023-04-24T10:24:17;10.70;99.90
51908;DHT22;39320;53.214;6.556;2023-04-24T10:26:44;10.70;99.90
51908;DHT22;39320;53.214;6.556;2023-04-24T10:29:12;10.70;99.90
51908;DHT22;39320;53.214;6.556;2023-04-24T10:31:39;10.70;99.90
51908;DHT22;39320;53.214;6.556;2023-04-24T10:34:06;10.70;99.90
51908;DHT22;39320;53.214;6.556;2023-04-24T10:36:34;10.70;99.90
51908;DHT22;39320;53.214;6.556;2023-04-24T10:39:02;10.70;99.90
51908;DHT22;39320;53.214;6.556;2023-04-24T10:41:32;10.70;99.90
51908;DHT22;39320;53.214;6.556;2023-04-24T10:44:11;10.80;99.90
51908;DHT22;39320;53.214;6.556;2023-04-24T10:46:38;10.80;99.90
51908;DHT22;39320;53.214;6.556;2023-04-24T10:49:07;10.90;99.90
51908;DHT22;39320;53.214;6.556;2023-04-24T10:51:52;10.80;99.90
51908;DHT22;39320;53.214;6.556;2023-04-24T10:56:53;10.80;99.90
51908;DHT22;39320;53.214;6.556;2023-04-24T10:59:39;10.80;99.90
51908;DHT22;39320;53.214;6.556;2023-04-24T11:02:07;10.70;99.90
51908;DHT22;39320;53.214;6.556;2023-04-24T11:04:34;10.70;99.90
51908;DHT22;39320;53.214;6.556;2023-04-24T11:07:03;10.70;99.90
51908;DHT22;39320;53.214;6.556;2023-04-24T11:09:33;10.70;99.90
51908;DHT22;39320;53.214;6.556;2023-04-24T11:12:05;10.70;99.90
51908;DHT22;39320;53.214;6.556;2023-04-24T11:17:30;10.70;99.90
51908;DHT22;39320;53.214;6.556;2023-04-24T11:20:07;10.70;99.90
51908;DHT22;39320;53.214;6.556;2023-04-24T11:22:36;10.70;99.90
51908;DHT22;39320;53.214;6.556;2023-04-24T11:25:03;10.80;99.90
51908;DHT22;39320;53.214;6.556;2023-04-24T11:27:42;10.70;99.90
51908;DHT22;39320;53.214;6.556;2023-04-24T11:30:09;10.80;99.90
51908;DHT22;39320;53.214;6.556;2023-04-24T11:32:41;10.80;99.90
51908;DHT22;39320;53.214;6.556;2023-04-24T11:35:21;10.80;99.90
51908;DHT22;39320;53.214;6.556;2023-04-24T11:37:53;10.70;99.90
51908;DHT22;39320;53.214;6.556;2023-04-24T11:40:21;10.70;99.90
51908;DHT22;39320;53.214;6.556;2023-04-24T11:42:52;10.80;99.90
51908;DHT22;39320;53.214;6.556;2023-04-24T11:45:26;10.70;99.90
51908;DHT22;39320;53.214;6.556;2023-04-24T11:47:53;10.70;99.90
51908;DHT22;39320;53.214;6.556;2023-04-24T11:50:23;10.70;99.90
51908;DHT22;39320;53.214;6.556;2023-04-24T11:52:50;10.70;99.90
51908;DHT22;39320;53.214;6.556;2023-04-24T11:57:46;10.70;99.90
51908;DHT22;39320;53.214;6.556;2023-04-24T12:00:19;10.70;99.90
51908;DHT22;39320;53.214;6.556;2023-04-24T12:02:46;10.70;99.90
51908;DHT22;39320;53.214;6.556;2023-04-24T12:05:29;10.70;99.90
51908;DHT22;39320;53.214;6.556;2023-04-24T12:07:57;10.70;99.90
51908;DHT22;39320;53.214;6.556;2023-04-24T12:10:28;10.70;99.90
51908;DHT22;39320;53.214;6.556;2023-04-24T12:12:56;10.60;99.90
51908;DHT22;39320;53.214;6.556;2023-04-24T12:15:23;10.60;99.90
51908;DHT22;39320;53.214;6.556;2023-04-24T12:17:51;10.60;99.90
51908;DHT22;39320;53.214;6.556;2023-04-24T12:20:17;10.50;99.90
51908;DHT22;39320;53.214;6.556;2023-04-24T12:22:56;10.50;99.90
51908;DHT22;39320;53.214;6.556;2023-04-24T12:25:24;10.60;99.90
51908;DHT22;39320;53.214;6.556;2023-04-24T12:30:29;10.60;99.90
51908;DHT22;39320;53.214;6.556;2023-04-24T12:32:58;10.70;99.90
51908;DHT22;39320;53.214;6.556;2023-04-24T12:35:26;10.60;99.90
51908;DHT22;39320;53.214;6.556;2023-04-24T12:37:52;10.60;99.90
51908;DHT22;39320;53.214;6.556;2023-04-24T12:40:20;10.60;99.90
51908;DHT22;39320;53.214;6.556;2023-04-24T12:42:50;10.60;99.90
51908;DHT22;39320;53.214;6.556;2023-04-24T12:45:19;10.60;99.90
51908;DHT22;39320;53.214;6.556;2023-04-24T12:47:46;10.60;99.90
51908;DHT22;39320;53.214;6.556;2023-04-24T12:50:15;10.60;99.90
51908;DHT22;39320;53.214;6.556;2023-04-24T12:52:42;10.60;99.90
51908;DHT22;39320;53.214;6.556;2023-04-24T12:55:09;10.60;99.90
51908;DHT22;39320;53.214;6.556;2023-04-24T12:57:36;10.60;99.90
51908;DHT22;39320;53.214;6.556;2023-04-24T13:00:03;10.60;99.90
51908;DHT22;39320;53.214;6.556;2023-04-24T13:02:30;10.50;99.90
51908;DHT22;39320;53.214;6.556;2023-04-24T13:05:00;10.50;99.90
51908;DHT22;39320;53.214;6.556;2023-04-24T13:07:27;10.50;99.90
51908;DHT22;39320;53.214;6.556;2023-04-24T13:09:54;10.50;99.90
51908;DHT22;39320;53.214;6.556;2023-04-24T13:12:20;10.50;99.90
51908;DHT22;39320;53.214;6.556;2023-04-24T13:14:46;10.50;99.90
51908;DHT22;39320;53.214;6.556;2023-04-24T13:17:12;10.40;99.90
51908;DHT22;39320;53.214;6.556;2023-04-24T13:19:41;10.40;99.90
51908;DHT22;39320;53.214;6.556;2023-04-24T13:22:09;10.50;99.90
51908;DHT22;39320;53.214;6.556;2023-04-24T13:24:35;10.40;99.90
51908;DHT22;39320;53.214;6.556;2023-04-24T13:27:01;10.40;99.90
51908;DHT22;39320;53.214;6.556;2023-04-24T13:29:30;10.40;99.90
51908;DHT22;39320;53.214;6.556;2023-04-24T13:31:56;10.40;99.90
51908;DHT22;39320;53.214;6.556;2023-04-24T13:34:25;10.40;99.90
51908;DHT22;39320;53.214;6.556;2023-04-24T13:36:53;10.40;99.90
51908;DHT22;39320;53.214;6.556;2023-04-24T13:39:19;10.00;99.90
51908;DHT22;39320;53.214;6.556;2023-04-24T13:41:45;10.50;99.90
51908;DHT22;39320;53.214;6.556;2023-04-24T13:44:14;10.40;99.90
51908;DHT22;39320;53.214;6.556;2023-04-24T13:46:40;10.40;99.90
51908;DHT22;39320;53.214;6.556;2023-04-24T13:49:05;10.40;99.90
51908;DHT22;39320;53.214;6.556;2023-04-24T13:51:32;10.40;99.90
51908;DHT22;39320;53.214;6.556;2023-04-24T13:53:58;10.50;99.90
51908;DHT22;39320;53.214;6.556;2023-04-24T13:56:23;10.50;99.90
51908;DHT22;39320;53.214;6.556;2023-04-24T13:58:49;10.50;99.90
51908;DHT22;39320;53.214;6.556;2023-04-24T14:01:15;10.50;99.90
51908;DHT22;39320;53.214;6.556;2023-04-24T14:03:41;10.50;99.90
51908;DHT22;39320;53.214;6.556;2023-04-24T14:06:08;10.40;99.90
51908;DHT22;39320;53.214;6.556;2023-04-24T14:08:34;10.40;99.90
51908;DHT22;39320;53.214;6.556;2023-04-24T14:11:00;10.30;99.90
51908;DHT22;39320;53.214;6.556;2023-04-24T14:13:26;10.30;99.90
51908;DHT22;39320;53.214;6.556;2023-04-24T14:15:53;10.20;99.90
51908;DHT22;39320;53.214;6.556;2023-04-24T14:18:18;10.20;99.90
51908;DHT22;39320;53.214;6.556;2023-04-24T14:20:45;10.00;99.90
51908;DHT22;39320;53.214;6.556;2023-04-24T14:23:11;10.20;99.90
51908;DHT22;39320;53.214;6.556;2023-04-24T14:25:37;10.20;99.90
51908;DHT22;39320;53.214;6.556;2023-04-24T14:28:02;10.10;99.90
51908;DHT22;39320;53.214;6.556;2023-04-24T14:30:28;10.10;99.90
51908;DHT22;39320;53.214;6.556;2023-04-24T14:32:57;10.00;99.90
51908;DHT22;39320;53.214;6.556;2023-04-24T14:35:23;10.00;99.90
51908;DHT22;39320;53.214;6.556;2023-04-24T14:37:48;10.00;99.90
51908;DHT22;39320;53.214;6.556;2023-04-24T14:40:15;10.00;99.90
51908;DHT22;39320;53.214;6.556;2023-04-24T14:42:41;10.00;99.90
51908;DHT22;39320;53.214;6.556;2023-04-24T14:45:07;10.10;99.90
51908;DHT22;39320;53.214;6.556;2023-04-24T14:47:33;10.10;99.90
51908;DHT22;39320;53.214;6.556;2023-04-24T14:49:59;10.20;99.90
51908;DHT22;39320;53.214;6.556;2023-04-24T14:52:25;10.00;99.90
51908;DHT22;39320;53.214;6.556;2023-04-24T14:54:51;10.20;99.90
51908;DHT22;39320;53.214;6.556;2023-04-24T14:57:16;10.20;99.90
51908;DHT22;39320;53.214;6.556;2023-04-24T14:59:42;10.20;99.90
51908;DHT22;39320;53.214;6.556;2023-04-24T15:02:14;10.30;99.90
51908;DHT22;39320;53.214;6.556;2023-04-24T15:04:39;10.20;99.90
51908;DHT22;39320;53.214;6.556;2023-04-24T15:07:08;10.10;99.90
51908;DHT22;39320;53.214;6.556;2023-04-24T15:09:34;10.10;99.90
51908;DHT22;39320;53.214;6.556;2023-04-24T15:12:00;10.10;99.90
51908;DHT22;39320;53.214;6.556;2023-04-24T15:14:27;10.00;99.90
51908;DHT22;39320;53.214;6.556;2023-04-24T15:16:52;10.00;99.90
51908;DHT22;39320;53.214;6.556;2023-04-24T15:19:18;10.10;99.90
51908;DHT22;39320;53.214;6.556;2023-04-24T15:21:44;10.00;99.90
51908;DHT22;39320;53.214;6.556;2023-04-24T15:24:10;10.00;99.90
51908;DHT22;39320;53.214;6.556;2023-04-24T15:26:36;10.00;99.90
51908;DHT22;39320;53.214;6.556;2023-04-24T15:29:02;10.10;99.90
51908;DHT22;39320;53.214;6.556;2023-04-24T15:31:28;10.10;99.90
51908;DHT22;39320;53.214;6.556;2023-04-24T15:33:53;10.00;99.90
51908;DHT22;39320;53.214;6.556;2023-04-24T15:36:20;10.10;99.90
51908;DHT22;39320;53.214;6.556;2023-04-24T15:38:46;10.10;99.90
51908;DHT22;39320;53.214;6.556;2023-04-24T15:41:13;10.00;99.90
51908;DHT22;39320;53.214;6.556;2023-04-24T15:43:39;10.00;99.90
51908;DHT22;39320;53.214;6.556;2023-04-24T15:46:07;10.00;99.90
51908;DHT22;39320;53.214;6.556;2023-04-24T15:48:34;10.00;99.90
51908;DHT22;39320;53.214;6.556;2023-04-24T15:51:00;10.00;99.90
51908;DHT22;39320;53.214;6.556;2023-04-24T15:53:26;9.90;99.90